Main page
METAR-TAF:

METAR-TAF

Airports :

Santander Airport

Santander, Spain

latitude: 43-26N, longitude: 003-49W, elevation: 6 m

Current weather observation

The report was made 21 minutes ago, at 20:30 UTC
Wind 2 kt from the East/Southeast
Temperature 20°C
Humidity 60%
Pressure 1016 hPa
Visibility 10 km or more
no clouds below 1500 m and no cumulonimbus

METAR: LEXJ 092030Z AUTO 11002KT CAVOK 20/12 Q1016

Time: 22:51 (20:51 UTC)

Forecast

The report was made 51 minutes ago, at 20:00 UTC
Forecast valid from 09 at 21 UTC to 10 at 21 UTC
Wind 5 kt from the Southwest
Visibility 10 km or more
Scattered clouds at a height of 3000 ft
Probability 40% :
Temporary
from 10 at 11 UTC to 10 at 19 UTC
Wind 10 kt from the North
Temporary
from 10 at 12 UTC to 10 at 21 UTC
Visibility: 3000 m
Scattered clouds at a height of 3000 ft, Towering cumulus.
rain, rain showers

TAF: LEXJ 092000Z 0921/1021 22005KT 9999 SCT030 TX21/0921Z TN14/1006Z PROB40 TEMPO 1011/1019 36010KT TEMPO 1012/1021 3000 RA SHRA SCT030TCU

Weather observations and forecasts of more than 4000 airports (METAR and TAF reports).

The available stations are represented by yellow and red dots on the map.

Hover mouse over dot to see the name of the station.

Then click to see weather observations and forecasts.

To change the map : click on the green buttons with a black cross to zoom in, on the green button with a dash to zoom out, or on the green arrows for adjacent maps.


METAR-TAF: